createdAt,value
2018-11-21T00:32:26.355Z,97754.27
2018-11-21T00:34:54.533Z,97756.12
2018-11-21T00:37:23.537Z,97762.52
2018-11-21T00:39:51.608Z,97769.70
2018-11-21T00:42:19.273Z,97769.45
2018-11-21T00:44:46.861Z,97775.55
2018-11-21T00:47:14.981Z,97776.02
2018-11-21T00:49:43.567Z,97782.39
2018-11-21T00:52:11.447Z,97789.88
2018-11-21T00:54:39.017Z,97793.56
2018-11-21T00:57:06.825Z,97794.12
2018-11-21T00:59:34.534Z,97790.91
2018-11-21T01:02:02.539Z,97793.82
2018-11-21T01:04:30.018Z,97791.66
2018-11-21T01:06:57.426Z,97799.92
2018-11-21T01:09:25.529Z,97799.69
2018-11-21T01:14:56.455Z,97804.52
2018-11-21T01:17:24.510Z,97805.63
2018-11-21T01:19:51.970Z,97807.73
2018-11-21T01:22:19.674Z,97806.39
2018-11-21T01:28:29.231Z,97815.36
2018-11-21T01:30:56.886Z,97817.30
2018-11-21T01:33:24.059Z,97816.25
2018-11-21T01:35:52.004Z,97818.14
2018-11-21T01:39:29.859Z,97816.25
2018-11-21T01:41:57.516Z,97813.88
2018-11-21T01:44:25.745Z,97816.81
2018-11-21T01:46:53.842Z,97821.59
2018-11-21T01:49:21.856Z,97828.48
2018-11-21T01:51:49.406Z,97838.63
2018-11-21T01:54:16.722Z,97839.17
2018-11-21T01:56:44.024Z,97838.09
2018-11-21T01:59:11.449Z,97837.53
2018-11-21T02:01:39.339Z,97813.94
2018-11-21T02:04:06.739Z,97840.48
2018-11-21T02:06:34.574Z,97839.37
2018-11-21T02:09:02.043Z,97847.88
2018-11-21T02:11:29.669Z,97852.13
2018-11-21T02:13:57.233Z,97852.13
2018-11-21T02:16:24.530Z,97853.72
2018-11-21T02:18:52.525Z,97848.41
2018-11-21T02:21:19.796Z,97846.59
2018-11-21T02:23:47.264Z,97847.34
2018-11-21T02:26:15.235Z,97849.52
2018-11-21T02:28:42.897Z,97851.90
2018-11-21T02:31:10.526Z,97857.75
2018-11-21T02:33:38.960Z,97859.34
2018-11-21T02:36:06.567Z,97855.58
2018-11-21T02:38:34.019Z,97864.40
2018-11-21T02:41:01.989Z,97855.90
2018-11-21T02:43:29.374Z,97855.90
2018-11-21T02:45:56.971Z,97858.03
2018-11-21T02:48:24.450Z,97860.69
2018-11-21T02:50:52.767Z,97858.83
2018-11-21T02:53:20.012Z,97858.28
2018-11-21T02:55:47.889Z,97853.80
2018-11-21T02:58:16.244Z,97849.77
2018-11-21T03:00:44.420Z,97838.33
2018-11-21T03:03:12.389Z,97840.70
2018-11-21T03:05:40.242Z,97848.92
2018-11-21T03:08:07.528Z,97855.30
2018-11-21T03:10:35.899Z,97861.15
2018-11-21T03:13:02.798Z,97862.53
2018-11-21T03:15:30.246Z,97872.38
2018-11-21T03:17:58.023Z,97871.86
2018-11-21T03:20:25.832Z,97854.38
2018-11-21T03:22:53.868Z,97854.38
2018-11-21T03:25:21.463Z,97890.21
2018-11-21T03:27:48.901Z,97896.88
2018-11-21T03:30:16.248Z,97899.55
2018-11-21T03:32:43.910Z,97901.91
2018-11-21T03:35:10.977Z,97903.26
2018-11-21T03:37:39.699Z,97902.98
2018-11-21T03:40:09.559Z,97907.50
2018-11-21T03:42:37.066Z,97901.34
2018-11-21T03:45:06.735Z,97895.52
2018-11-21T03:47:35.252Z,97890.20
2018-11-21T03:50:03.039Z,97891.20
2018-11-21T03:53:20.534Z,97890.23
2018-11-21T03:55:49.228Z,97881.75
2018-11-21T03:58:17.047Z,97875.60
2018-11-21T04:00:45.353Z,97880.38
2018-11-21T04:04:26.812Z,97881.16
2018-11-21T04:06:55.257Z,97890.22
2018-11-21T04:09:22.535Z,97894.46
2018-11-21T04:11:50.650Z,97901.14
2018-11-21T04:14:17.927Z,97901.68
2018-11-21T04:16:45.419Z,97906.19
2018-11-21T04:19:13.222Z,97907.27
2018-11-21T04:21:41.051Z,97917.37
2018-11-21T04:24:08.553Z,97925.34
2018-11-21T04:26:35.992Z,97924.02
2018-11-21T04:29:03.934Z,97923.44
2018-11-21T04:31:31.363Z,97926.11
2018-11-21T04:33:59.246Z,97928.22
2018-11-21T04:36:26.541Z,97929.29
2018-11-21T04:38:53.875Z,97939.39
2018-11-21T04:41:21.538Z,97931.69
2018-11-21T04:43:49.810Z,97938.60
2018-11-21T04:46:17.527Z,97942.33
2018-11-21T04:48:45.725Z,97939.14
2018-11-21T04:51:13.912Z,97938.60
2018-11-21T04:53:41.251Z,97938.88
2018-11-21T04:56:09.027Z,97941.03
2018-11-21T04:58:36.471Z,97952.22
2018-11-21T05:01:03.975Z,97952.22
2018-11-21T05:03:32.039Z,97957.25
2018-11-21T05:05:59.775Z,97924.88
2018-11-21T05:08:27.895Z,97924.88
2018-11-21T05:10:54.831Z,97970.78
2018-11-21T05:13:22.260Z,97976.11
2018-11-21T05:15:49.540Z,97987.28
2018-11-21T05:18:17.641Z,97981.92
2018-11-21T05:20:44.956Z,97987.77
2018-11-21T05:23:13.435Z,97997.62
2018-11-21T05:25:41.784Z,97994.68
2018-11-21T05:28:09.426Z,98000.30
2018-11-21T05:30:36.940Z,98003.24
2018-11-21T05:33:04.290Z,97998.16
2018-11-21T05:35:31.545Z,98002.70
2018-11-21T05:37:58.845Z,98000.31
2018-11-21T05:40:27.951Z,98004.83
2018-11-21T05:42:55.806Z,98014.70
2018-11-21T05:45:23.763Z,98020.80
2018-11-21T05:47:52.030Z,98030.38
2018-11-21T05:50:19.852Z,98034.39
2018-11-21T05:52:47.030Z,98034.39
2018-11-21T05:55:15.258Z,98052.73
2018-11-21T05:57:42.542Z,98052.73
2018-11-21T06:00:11.754Z,98069.19
2018-11-21T06:02:39.681Z,98063.88
2018-11-21T06:05:07.882Z,98064.97
2018-11-21T06:07:34.814Z,98071.30
2018-11-21T06:10:02.835Z,98072.38
2018-11-21T06:12:30.261Z,98073.98
2018-11-21T06:14:57.551Z,98068.95
2018-11-21T06:17:25.262Z,98071.88
2018-11-21T06:19:53.523Z,98072.42
2018-11-21T06:22:20.847Z,98069.23
2018-11-21T06:24:48.746Z,98073.73
2018-11-21T06:27:16.386Z,98075.61
2018-11-21T06:29:44.499Z,98075.86
2018-11-21T06:32:11.819Z,98081.18
2018-11-21T06:34:39.253Z,98087.55
2018-11-21T06:37:06.912Z,98057.80
2018-11-21T06:40:45.436Z,98099.80
2018-11-21T06:43:12.730Z,98101.67
2018-11-21T06:45:41.435Z,98109.63
2018-11-21T06:48:09.823Z,98111.22
2018-11-21T06:50:37.463Z,98119.50
2018-11-21T06:53:05.507Z,98125.34
2018-11-21T06:55:32.796Z,98127.19
2018-11-21T06:58:00.020Z,98130.92
2018-11-21T07:00:27.779Z,98135.71
2018-11-21T07:02:55.435Z,98128.53
2018-11-21T07:05:23.486Z,98135.70
2018-11-21T07:07:50.770Z,98135.19
2018-11-21T07:10:18.458Z,98145.83
2018-11-21T07:12:45.885Z,98143.72
2018-11-21T07:15:12.806Z,98148.22
2018-11-21T07:17:41.061Z,98160.97
2018-11-21T07:20:10.817Z,98160.72
2018-11-21T07:22:38.633Z,98163.13
2018-11-21T07:25:15.965Z,98159.39
2018-11-21T07:27:42.942Z,98156.20
2018-11-21T07:30:11.946Z,98162.84
2018-11-21T07:32:39.633Z,98163.91
2018-11-21T07:35:07.618Z,98174.02
2018-11-21T07:37:35.961Z,98176.16
2018-11-21T07:40:04.922Z,98174.00
2018-11-21T07:42:33.678Z,98174.29
2018-11-21T07:45:02.733Z,98163.39
2018-11-21T07:47:30.763Z,98183.06
2018-11-21T07:49:58.638Z,98186.80
2018-11-21T07:52:25.938Z,98191.32
2018-11-21T07:54:53.415Z,98199.02
2018-11-21T07:57:38.893Z,98198.21
2018-11-21T08:00:54.874Z,98197.94
2018-11-21T08:05:50.138Z,98201.34
2018-11-21T08:08:30.919Z,98204.02
2018-11-21T08:11:26.533Z,98201.90
2018-11-21T08:14:28.535Z,98198.69
2018-11-21T08:17:09.934Z,98197.08
2018-11-21T08:19:56.739Z,98197.08
2018-11-21T08:22:49.992Z,98203.45
2018-11-21T08:25:50.337Z,98199.98
2018-11-21T08:28:20.589Z,98211.97
2018-11-21T08:30:49.546Z,98207.41
2018-11-21T08:33:16.857Z,98216.20
2018-11-21T08:35:44.538Z,98214.58
2018-11-21T08:38:12.760Z,98220.98
2018-11-21T08:40:40.490Z,98219.62
2018-11-21T08:43:07.916Z,98226.55
2018-11-21T08:45:34.907Z,98218.82
2018-11-21T08:48:02.812Z,98224.41
2018-11-21T08:50:30.266Z,98233.94
2018-11-21T08:52:57.635Z,98232.34
2018-11-21T09:52:55.402Z,98288.19
2018-11-21T09:55:25.260Z,98290.88
2018-11-21T09:57:55.443Z,98291.95
2018-11-21T12:35:54.647Z,98328.28
2018-11-21T13:06:21.639Z,98309.14
2018-11-21T13:09:12.247Z,98311.59
2018-11-21T13:12:09.360Z,98316.16
2018-11-21T13:14:52.414Z,98321.19
2018-11-21T13:17:39.652Z,98325.45
2018-11-21T13:20:31.649Z,98328.98
2018-11-21T13:23:28.798Z,98327.42
2018-11-21T13:26:15.939Z,98325.81
2018-11-21T13:29:20.607Z,98322.31
2018-11-21T13:32:09.417Z,98331.89
2018-11-21T13:34:58.122Z,98332.73
2018-11-21T13:37:52.605Z,98331.42
2018-11-21T13:40:36.044Z,98330.84
2018-11-21T13:43:24.256Z,98336.98
